createdAt,value
2017-08-25T00:00:41.600Z,13.80
2017-08-25T00:03:09.147Z,13.80
2017-08-25T00:05:36.667Z,14.00
2017-08-25T00:08:04.207Z,14.00
2017-08-25T00:10:31.727Z,14.10
2017-08-25T00:12:59.270Z,14.10
2017-08-25T00:15:26.788Z,14.10
2017-08-25T00:17:54.311Z,14.20
2017-08-25T00:20:21.852Z,14.20
2017-08-25T00:22:49.375Z,14.20
2017-08-25T00:25:16.914Z,14.30
2017-08-25T00:27:44.434Z,14.20
2017-08-25T00:30:11.975Z,14.20
2017-08-25T00:32:39.493Z,14.20
2017-08-25T00:35:07.027Z,14.20
2017-08-25T00:37:34.547Z,14.20
2017-08-25T00:40:02.855Z,14.30
2017-08-25T00:42:30.375Z,14.30
2017-08-25T00:44:57.918Z,14.30
2017-08-25T00:47:25.464Z,14.30
2017-08-25T00:49:52.998Z,14.30
2017-08-25T00:52:20.534Z,14.30
2017-08-25T00:54:48.067Z,14.20
2017-08-25T00:57:15.635Z,14.20
2017-08-25T00:59:43.163Z,14.10
2017-08-25T01:02:10.716Z,13.90
2017-08-25T01:04:38.250Z,13.80
2017-08-25T01:07:05.802Z,13.70
2017-08-25T01:09:33.349Z,13.60
2017-08-25T01:12:00.895Z,13.60
2017-08-25T01:14:28.425Z,13.70
2017-08-25T01:16:56.735Z,13.80
2017-08-25T01:19:24.253Z,13.80
2017-08-25T01:21:51.803Z,13.80
2017-08-25T01:24:19.330Z,13.80
2017-08-25T01:26:46.856Z,13.80
2017-08-25T01:29:14.410Z,13.90
2017-08-25T01:31:41.934Z,13.90
2017-08-25T01:34:09.471Z,13.80
2017-08-25T01:36:36.996Z,13.80
2017-08-25T01:39:04.545Z,13.70
2017-08-25T01:41:32.068Z,13.70
2017-08-25T01:43:59.609Z,13.70
2017-08-25T01:46:27.131Z,13.70
2017-08-25T01:48:54.670Z,13.80
2017-08-25T01:51:22.191Z,13.80
2017-08-25T01:53:49.711Z,13.90
2017-08-25T01:56:17.250Z,13.90
2017-08-25T01:58:44.770Z,14.00
2017-08-25T02:01:12.307Z,14.00
2017-08-25T02:03:39.839Z,14.00
2017-08-25T02:06:07.386Z,14.00
2017-08-25T02:08:34.905Z,14.00
2017-08-25T02:11:02.447Z,14.00
2017-08-25T02:13:29.967Z,14.00
2017-08-25T02:15:57.502Z,14.10
2017-08-25T02:18:25.019Z,14.00
2017-08-25T02:20:52.575Z,14.00
2017-08-25T02:23:20.091Z,14.00
2017-08-25T02:25:47.609Z,13.90
2017-08-25T02:28:15.154Z,13.90
2017-08-25T02:30:42.678Z,13.90
2017-08-25T02:33:10.227Z,13.90
2017-08-25T02:35:37.749Z,13.80
2017-08-25T02:38:05.297Z,13.60
2017-08-25T02:40:32.815Z,13.50
2017-08-25T02:43:00.370Z,13.50
2017-08-25T02:45:27.887Z,13.60
2017-08-25T02:47:55.422Z,13.70
2017-08-25T02:50:22.933Z,13.80
2017-08-25T02:52:50.470Z,13.80
2017-08-25T02:55:18.753Z,14.00
2017-08-25T02:57:46.291Z,13.90
2017-08-25T03:00:13.818Z,14.00
2017-08-25T03:02:41.358Z,13.90
2017-08-25T03:05:08.873Z,13.90
2017-08-25T03:07:36.391Z,13.90
2017-08-25T03:10:03.926Z,13.90
2017-08-25T03:12:31.448Z,14.00
2017-08-25T03:14:58.988Z,13.90
2017-08-25T03:17:26.505Z,13.90
2017-08-25T03:19:54.047Z,13.90
2017-08-25T03:22:21.568Z,14.00
2017-08-25T03:24:49.105Z,14.00
2017-08-25T03:27:16.618Z,14.10
2017-08-25T03:29:44.162Z,14.20
2017-08-25T03:32:11.685Z,14.20
2017-08-25T03:34:39.200Z,14.30
2017-08-25T03:37:06.745Z,14.30
2017-08-25T03:39:34.262Z,14.30
2017-08-25T03:42:01.793Z,14.30
2017-08-25T03:44:29.319Z,14.30
2017-08-25T03:46:56.863Z,14.20
2017-08-25T03:49:24.391Z,14.30
2017-08-25T03:51:51.934Z,14.30
2017-08-25T03:54:19.449Z,14.40
2017-08-25T03:56:46.991Z,14.50
2017-08-25T03:59:14.510Z,14.40
2017-08-25T04:01:42.045Z,14.50
2017-08-25T04:04:09.566Z,14.50
2017-08-25T04:06:37.106Z,14.50
2017-08-25T04:09:04.652Z,14.50
2017-08-25T04:11:32.176Z,14.50
2017-08-25T04:13:59.712Z,14.50
2017-08-25T04:16:27.235Z,14.50
2017-08-25T04:18:54.770Z,14.40
2017-08-25T04:21:22.352Z,14.30
2017-08-25T04:23:50.252Z,14.30
2017-08-25T04:26:17.817Z,14.30
2017-08-25T04:28:45.743Z,14.30
2017-08-25T04:31:13.334Z,14.30
2017-08-25T04:33:40.857Z,14.30
2017-08-25T04:36:08.395Z,14.30
2017-08-25T04:38:35.910Z,14.30
2017-08-25T04:41:03.459Z,14.30
2017-08-25T04:43:30.984Z,14.20
2017-08-25T04:45:58.522Z,14.20
2017-08-25T04:48:26.043Z,14.20
2017-08-25T04:50:53.582Z,14.00
2017-08-25T04:53:21.111Z,14.00
2017-08-25T04:55:48.695Z,14.10
2017-08-25T04:58:16.224Z,14.20
2017-08-25T05:00:43.740Z,14.20
2017-08-25T05:03:11.283Z,14.30
2017-08-25T05:05:38.804Z,14.40
2017-08-25T05:08:06.380Z,14.60
2017-08-25T05:10:33.918Z,14.70
2017-08-25T05:13:01.458Z,14.90
2017-08-25T05:15:28.984Z,15.30
2017-08-25T05:17:56.522Z,15.90
2017-08-25T05:20:24.049Z,16.30
2017-08-25T05:22:51.591Z,16.40
2017-08-25T05:25:19.114Z,16.50
2017-08-25T05:27:46.670Z,16.70
2017-08-25T05:30:14.201Z,17.20
2017-08-25T05:32:41.726Z,17.60
2017-08-25T05:35:09.262Z,17.90
2017-08-25T05:37:36.786Z,18.10
2017-08-25T05:40:05.087Z,17.70
2017-08-25T05:42:32.607Z,17.60
2017-08-25T05:45:00.143Z,17.30
2017-08-25T05:47:28.500Z,17.10
2017-08-25T05:49:56.343Z,16.90
2017-08-25T05:52:23.868Z,16.70
2017-08-25T05:54:51.406Z,16.60
2017-08-25T05:57:18.924Z,16.40
2017-08-25T05:59:46.471Z,16.30
2017-08-25T06:02:14.006Z,16.60
2017-08-25T06:04:41.527Z,17.50
2017-08-25T06:07:09.071Z,18.50
2017-08-25T06:09:36.586Z,19.60
2017-08-25T06:12:04.127Z,20.60
2017-08-25T06:14:31.655Z,21.40
2017-08-25T06:16:59.200Z,21.70
2017-08-25T06:19:26.726Z,22.00
2017-08-25T06:21:54.285Z,21.90
2017-08-25T06:24:21.818Z,21.30
2017-08-25T06:26:49.382Z,20.80
2017-08-25T06:29:16.899Z,20.40
2017-08-25T06:31:44.426Z,19.90
2017-08-25T06:34:11.967Z,19.60
2017-08-25T06:36:39.495Z,19.30
2017-08-25T06:39:07.044Z,19.00
2017-08-25T06:41:34.566Z,18.80
2017-08-25T06:44:02.113Z,18.70
2017-08-25T06:46:29.645Z,18.60
2017-08-25T06:48:57.178Z,18.70
2017-08-25T06:51:24.701Z,18.80
2017-08-25T06:53:52.239Z,18.90
2017-08-25T06:56:19.759Z,18.80
2017-08-25T06:58:47.304Z,18.80
2017-08-25T07:01:14.833Z,18.60
2017-08-25T07:03:42.381Z,18.50
2017-08-25T07:06:09.907Z,18.40
2017-08-25T07:08:37.454Z,18.80
2017-08-25T07:11:05.001Z,19.90
2017-08-25T07:13:32.524Z,20.50
2017-08-25T07:16:00.058Z,20.40
2017-08-25T07:18:27.585Z,20.30
2017-08-25T07:20:55.195Z,20.30
2017-08-25T07:23:22.727Z,20.60
2017-08-25T07:25:50.263Z,20.50
2017-08-25T07:28:17.787Z,20.60
2017-08-25T07:30:45.585Z,21.20
2017-08-25T07:33:13.138Z,22.00
2017-08-25T07:35:40.663Z,22.60
2017-08-25T07:38:08.199Z,22.70
2017-08-25T07:40:35.725Z,22.60
2017-08-25T07:43:03.264Z,22.80
2017-08-25T07:45:30.786Z,22.90
2017-08-25T07:47:58.422Z,22.70
2017-08-25T07:50:25.953Z,22.60
2017-08-25T07:52:53.496Z,22.50
2017-08-25T07:55:21.031Z,22.30
2017-08-25T07:57:48.597Z,22.10
2017-08-25T08:00:16.128Z,21.80
2017-08-25T08:02:43.657Z,21.40
2017-08-25T08:05:11.204Z,21.10
2017-08-25T08:07:38.722Z,20.90
2017-08-25T08:10:06.259Z,20.90
2017-08-25T08:12:33.778Z,21.20
2017-08-25T08:15:01.339Z,21.50
2017-08-25T08:17:28.860Z,21.70
2017-08-25T08:19:56.407Z,21.60
2017-08-25T08:22:23.926Z,21.70
2017-08-25T08:24:51.471Z,21.70
2017-08-25T08:27:18.996Z,21.80
2017-08-25T08:29:46.552Z,21.90
2017-08-25T08:32:14.086Z,22.50
2017-08-25T08:34:41.608Z,23.50
2017-08-25T08:37:09.152Z,24.40
2017-08-25T08:39:36.679Z,25.20
2017-08-25T08:42:04.217Z,25.80
2017-08-25T08:44:31.739Z,26.30
2017-08-25T08:46:59.282Z,26.80
2017-08-25T08:49:27.154Z,27.00
2017-08-25T08:51:54.729Z,27.10
2017-08-25T08:54:22.254Z,27.30
2017-08-25T08:56:49.795Z,27.70
2017-08-25T08:59:17.318Z,28.10
2017-08-25T09:01:44.867Z,28.40
2017-08-25T09:04:12.394Z,28.60
2017-08-25T09:06:39.927Z,28.70
2017-08-25T09:09:07.467Z,28.70
2017-08-25T09:11:34.995Z,28.80
2017-08-25T09:14:02.537Z,28.80
2017-08-25T09:16:30.060Z,28.80
2017-08-25T09:18:57.603Z,28.80
2017-08-25T09:21:25.127Z,28.90
2017-08-25T09:23:52.671Z,29.40
2017-08-25T09:26:20.196Z,29.70
2017-08-25T09:28:47.734Z,29.80
2017-08-25T09:31:15.260Z,29.80
2017-08-25T09:33:44.086Z,29.80
2017-08-25T09:36:11.602Z,30.10
2017-08-25T09:38:39.156Z,30.50
2017-08-25T09:41:06.676Z,30.90
2017-08-25T09:43:34.230Z,31.20
2017-08-25T09:46:01.782Z,31.30
2017-08-25T09:48:29.307Z,31.10
2017-08-25T09:50:56.847Z,31.00
2017-08-25T09:53:24.366Z,30.80
2017-08-25T09:55:51.912Z,30.50
2017-08-25T09:58:19.443Z,30.20
2017-08-25T10:00:46.985Z,30.10
2017-08-25T10:03:14.506Z,30.10
2017-08-25T10:05:42.060Z,30.60
2017-08-25T10:08:09.588Z,30.80
2017-08-25T10:10:37.132Z,30.80
2017-08-25T10:13:04.667Z,31.20
2017-08-25T10:15:32.211Z,31.40
2017-08-25T10:17:59.736Z,31.60
2017-08-25T10:20:27.282Z,31.40
2017-08-25T10:22:55.650Z,31.50
2017-08-25T10:25:23.171Z,31.40
2017-08-25T10:27:50.718Z,31.50
2017-08-25T10:30:18.251Z,31.70
2017-08-25T10:32:45.792Z,31.00
2017-08-25T10:35:25.017Z,30.50
2017-08-25T10:38:04.526Z,30.40
2017-08-25T10:40:43.779Z,30.50
2017-08-25T10:43:23.211Z,30.80
2017-08-25T10:45:50.739Z,31.30
2017-08-25T10:48:19.814Z,31.60
2017-08-25T10:50:47.359Z,32.00
2017-08-25T10:53:15.195Z,32.50
2017-08-25T10:55:42.763Z,33.00
2017-08-25T10:58:10.323Z,33.00
2017-08-25T11:00:37.853Z,32.40
2017-08-25T11:03:05.393Z,31.80
2017-08-25T11:05:32.918Z,31.90
2017-08-25T11:08:00.469Z,32.10
2017-08-25T11:10:27.991Z,32.30
2017-08-25T11:12:55.538Z,32.80
2017-08-25T11:15:23.077Z,32.80
2017-08-25T11:17:50.632Z,32.80
2017-08-25T11:20:18.167Z,32.80
2017-08-25T11:22:45.686Z,32.80
2017-08-25T11:25:13.228Z,32.70
2017-08-25T11:27:40.741Z,32.40
2017-08-25T11:30:08.283Z,31.80
2017-08-25T11:32:35.800Z,31.20
2017-08-25T11:35:03.343Z,31.20
2017-08-25T11:37:30.864Z,31.40
2017-08-25T11:39:58.421Z,31.60
2017-08-25T11:42:25.940Z,32.10
2017-08-25T11:44:53.475Z,32.70
2017-08-25T11:47:20.997Z,32.80
2017-08-25T11:49:48.542Z,32.50
2017-08-25T11:52:16.067Z,32.60
2017-08-25T11:54:43.620Z,32.70
2017-08-25T11:57:11.159Z,32.80
2017-08-25T11:59:38.687Z,32.90
2017-08-25T12:02:06.232Z,32.70
2017-08-25T12:04:33.766Z,32.90
2017-08-25T12:07:01.311Z,33.00
2017-08-25T12:09:28.834Z,33.30
2017-08-25T12:11:56.376Z,33.20
2017-08-25T12:14:23.894Z,32.80
2017-08-25T12:16:51.445Z,32.40
2017-08-25T12:19:18.970Z,32.10
2017-08-25T12:21:46.512Z,31.90
2017-08-25T12:24:14.037Z,31.80
2017-08-25T12:26:41.571Z,31.70
2017-08-25T12:29:09.103Z,31.30
2017-08-25T12:31:36.653Z,30.70
2017-08-25T12:34:04.175Z,30.80
2017-08-25T12:36:31.695Z,31.00
2017-08-25T12:38:59.234Z,31.10
2017-08-25T12:41:26.788Z,31.40
2017-08-25T12:43:54.403Z,31.50
2017-08-25T12:46:21.952Z,31.50
2017-08-25T12:48:49.498Z,31.30
2017-08-25T12:51:17.035Z,31.00
2017-08-25T12:53:44.592Z,30.70
2017-08-25T12:56:12.127Z,30.50
2017-08-25T12:58:39.682Z,30.50
2017-08-25T13:01:07.216Z,30.50
2017-08-25T13:03:34.752Z,30.80
2017-08-25T13:06:02.266Z,30.80
2017-08-25T13:08:29.826Z,30.60
2017-08-25T13:10:57.352Z,30.70
2017-08-25T13:13:24.875Z,31.10
2017-08-25T13:15:52.421Z,31.20
2017-08-25T13:18:19.951Z,31.30
2017-08-25T13:20:47.490Z,30.80
2017-08-25T13:23:15.013Z,30.60
2017-08-25T13:25:42.550Z,30.80
2017-08-25T13:28:10.079Z,31.10
2017-08-25T13:30:37.637Z,31.50
2017-08-25T13:33:05.161Z,31.60
2017-08-25T13:35:32.703Z,31.20
2017-08-25T13:38:00.227Z,31.00
2017-08-25T13:40:27.775Z,30.80
2017-08-25T13:42:55.295Z,30.90
2017-08-25T13:45:22.816Z,31.00
2017-08-25T13:47:50.359Z,31.10
2017-08-25T13:50:17.875Z,31.30
2017-08-25T13:52:45.411Z,31.20
2017-08-25T13:55:12.933Z,30.70
2017-08-25T13:57:40.471Z,30.30
2017-08-25T14:00:07.997Z,30.00
2017-08-25T14:02:35.538Z,29.80
2017-08-25T14:05:03.063Z,29.70
2017-08-25T14:07:30.605Z,29.80
2017-08-25T14:09:58.129Z,29.80
2017-08-25T14:12:25.670Z,29.80
2017-08-25T14:14:53.189Z,30.10
2017-08-25T14:17:20.751Z,30.20
2017-08-25T14:19:48.275Z,30.50
2017-08-25T14:22:15.800Z,30.40
2017-08-25T14:24:43.337Z,30.30
2017-08-25T14:27:10.864Z,30.20
2017-08-25T14:29:38.409Z,30.30
2017-08-25T14:32:05.927Z,30.10
2017-08-25T14:34:33.475Z,30.10
2017-08-25T14:37:00.997Z,30.30
2017-08-25T14:39:28.541Z,30.20
2017-08-25T14:41:56.126Z,30.10
2017-08-25T14:44:23.778Z,30.10
2017-08-25T14:46:51.298Z,29.90
2017-08-25T14:49:19.018Z,29.80
2017-08-25T14:51:46.543Z,29.50
2017-08-25T14:54:14.064Z,29.50
2017-08-25T14:56:41.602Z,29.50
2017-08-25T14:59:09.120Z,29.40
2017-08-25T15:01:36.663Z,29.50
2017-08-25T15:04:04.187Z,29.40
2017-08-25T15:06:31.723Z,29.40
2017-08-25T15:08:59.243Z,29.30
2017-08-25T15:11:26.791Z,29.20
2017-08-25T15:13:54.318Z,29.20
2017-08-25T15:16:21.865Z,29.10
2017-08-25T15:18:49.394Z,29.20
2017-08-25T15:21:16.936Z,29.20
2017-08-25T15:23:44.483Z,29.10
2017-08-25T15:26:12.010Z,29.00
2017-08-25T15:28:39.552Z,28.60
2017-08-25T15:31:07.079Z,28.40
2017-08-25T15:33:34.631Z,28.10
2017-08-25T15:36:02.167Z,27.80
2017-08-25T15:38:29.710Z,27.80
2017-08-25T15:40:57.245Z,28.00
2017-08-25T15:43:24.794Z,28.00
2017-08-25T15:45:52.324Z,28.10
2017-08-25T15:48:19.876Z,28.30
2017-08-25T15:50:47.394Z,28.40
2017-08-25T15:53:14.910Z,28.40
2017-08-25T15:55:42.456Z,28.30
2017-08-25T15:58:09.980Z,28.20
2017-08-25T16:00:37.523Z,28.00
2017-08-25T16:03:05.038Z,27.80
2017-08-25T16:05:32.582Z,27.70
2017-08-25T16:08:00.111Z,27.60
2017-08-25T16:10:27.650Z,27.20
2017-08-25T16:12:55.167Z,26.90
2017-08-25T16:15:22.713Z,26.60
2017-08-25T16:17:50.242Z,26.40
2017-08-25T16:20:17.778Z,26.20
2017-08-25T16:22:45.302Z,26.20
2017-08-25T16:25:12.847Z,26.10
2017-08-25T16:27:40.371Z,25.90
2017-08-25T16:30:07.894Z,25.90
2017-08-25T16:32:35.434Z,25.80
2017-08-25T16:35:02.961Z,25.80
2017-08-25T16:37:30.502Z,25.70
2017-08-25T16:39:58.025Z,25.70
2017-08-25T16:42:25.571Z,25.70
2017-08-25T16:44:53.090Z,25.70
2017-08-25T16:47:20.637Z,25.70
2017-08-25T16:49:48.157Z,25.70
2017-08-25T16:52:15.700Z,25.50
2017-08-25T16:54:43.221Z,25.40
2017-08-25T16:57:10.772Z,25.30
2017-08-25T16:59:38.294Z,25.20
2017-08-25T17:02:05.852Z,25.20
2017-08-25T17:04:33.370Z,25.00
2017-08-25T17:07:00.892Z,24.90
2017-08-25T17:09:28.438Z,24.80
2017-08-25T17:11:55.956Z,24.60
2017-08-25T17:14:23.494Z,24.60
2017-08-25T17:16:51.019Z,24.50
2017-08-25T17:19:18.555Z,24.30
2017-08-25T17:21:46.075Z,24.20
2017-08-25T17:24:13.611Z,24.10
2017-08-25T17:26:41.131Z,24.00
2017-08-25T17:29:08.671Z,23.80
2017-08-25T17:31:36.198Z,23.70
2017-08-25T17:34:03.744Z,23.60
2017-08-25T17:36:31.264Z,23.60
2017-08-25T17:38:58.815Z,23.60
2017-08-25T17:41:26.335Z,23.60
2017-08-25T17:43:53.855Z,23.50
2017-08-25T17:46:21.403Z,23.50
2017-08-25T17:48:48.919Z,23.40
2017-08-25T17:51:16.463Z,23.40
2017-08-25T17:53:43.987Z,23.30
2017-08-25T17:56:11.531Z,23.20
2017-08-25T17:58:39.050Z,23.10
2017-08-25T18:01:06.596Z,22.80
2017-08-25T18:03:34.127Z,22.50
2017-08-25T18:06:01.674Z,22.30
2017-08-25T18:08:29.198Z,22.30
2017-08-25T18:10:56.745Z,22.30
2017-08-25T18:13:24.274Z,22.40
2017-08-25T18:15:51.814Z,22.10
2017-08-25T18:18:19.334Z,22.00
2017-08-25T18:20:46.859Z,21.90
2017-08-25T18:23:14.395Z,21.00
2017-08-25T18:25:41.915Z,20.40
2017-08-25T18:28:09.458Z,20.10
2017-08-25T18:30:36.987Z,19.90
2017-08-25T18:33:04.530Z,19.90
2017-08-25T18:35:32.059Z,19.90
2017-08-25T18:37:59.594Z,19.90
2017-08-25T18:40:27.118Z,19.90
2017-08-25T18:42:54.671Z,19.90
2017-08-25T18:45:22.191Z,20.00
2017-08-25T18:47:50.474Z,20.00
2017-08-25T18:50:18.020Z,20.00
2017-08-25T18:52:45.535Z,19.90
2017-08-25T18:55:13.068Z,19.70
2017-08-25T18:57:40.588Z,19.70
2017-08-25T19:00:08.123Z,19.70
2017-08-25T19:02:35.648Z,19.80
2017-08-25T19:05:03.192Z,19.80
2017-08-25T19:07:30.710Z,19.80
2017-08-25T19:09:58.246Z,19.70
2017-08-25T19:12:25.764Z,19.70
2017-08-25T19:14:53.304Z,19.70
2017-08-25T19:17:20.822Z,19.70
2017-08-25T19:19:48.360Z,19.60
2017-08-25T19:22:15.895Z,19.60
2017-08-25T19:24:43.436Z,19.60
2017-08-25T19:27:10.951Z,19.60
2017-08-25T19:29:38.503Z,19.60
2017-08-25T19:32:06.025Z,19.40
2017-08-25T19:34:33.548Z,19.30
2017-08-25T19:37:01.086Z,19.40
2017-08-25T19:39:28.622Z,19.40
2017-08-25T19:41:56.162Z,19.50
2017-08-25T19:44:23.679Z,19.40
2017-08-25T19:46:51.211Z,19.40
2017-08-25T19:49:18.728Z,19.40
2017-08-25T19:51:46.261Z,19.30
2017-08-25T19:54:13.787Z,19.10
2017-08-25T19:56:41.322Z,19.00
2017-08-25T19:59:08.841Z,19.10
2017-08-25T20:01:36.388Z,19.20
2017-08-25T20:04:03.911Z,19.20
2017-08-25T20:06:31.466Z,19.20
2017-08-25T20:08:58.992Z,19.10
2017-08-25T20:11:26.522Z,19.10
2017-08-25T20:13:54.062Z,19.10
2017-08-25T20:16:21.587Z,19.00
2017-08-25T20:18:49.132Z,19.00
2017-08-25T20:21:16.654Z,19.00
2017-08-25T20:23:44.189Z,18.90
2017-08-25T20:26:11.710Z,18.90
2017-08-25T20:28:39.243Z,18.90
2017-08-25T20:31:06.763Z,18.90
2017-08-25T20:33:34.303Z,18.80
2017-08-25T20:36:01.827Z,18.90
2017-08-25T20:38:29.371Z,18.90
2017-08-25T20:40:56.890Z,19.00
2017-08-25T20:43:24.437Z,19.10
2017-08-25T20:45:51.960Z,19.10
2017-08-25T20:48:19.490Z,19.00
2017-08-25T20:50:47.031Z,19.00
2017-08-25T20:53:14.556Z,19.00
2017-08-25T20:55:42.095Z,19.10
2017-08-25T20:58:09.619Z,19.20
2017-08-25T21:00:37.164Z,19.10
2017-08-25T21:03:04.682Z,19.10
2017-08-25T21:05:32.223Z,19.00
2017-08-25T21:07:59.735Z,19.00
2017-08-25T21:10:27.279Z,19.00
2017-08-25T21:12:54.804Z,18.80
2017-08-25T21:15:22.347Z,18.70
2017-08-25T21:17:49.873Z,18.70
2017-08-25T21:20:17.392Z,18.70
2017-08-25T21:22:44.928Z,18.80
2017-08-25T21:25:12.448Z,18.80
2017-08-25T21:27:39.991Z,18.70
2017-08-25T21:30:08.275Z,18.50
2017-08-25T21:32:36.583Z,18.50
2017-08-25T21:35:04.107Z,18.50
2017-08-25T21:37:31.646Z,18.50
2017-08-25T21:39:59.175Z,18.40
2017-08-25T21:42:26.719Z,18.40
2017-08-25T21:44:54.255Z,18.50
2017-08-25T21:47:22.493Z,18.50
2017-08-25T21:49:50.034Z,18.50
2017-08-25T21:52:17.555Z,18.50
2017-08-25T21:54:45.098Z,18.50
2017-08-25T21:57:12.615Z,18.50
2017-08-25T21:59:40.147Z,18.50
2017-08-25T22:02:07.672Z,18.30
2017-08-25T22:04:35.212Z,18.30
2017-08-25T22:07:02.732Z,18.30
2017-08-25T22:09:30.276Z,18.30
2017-08-25T22:11:57.794Z,18.30
2017-08-25T22:14:25.343Z,18.30
2017-08-25T22:16:52.859Z,18.30
2017-08-25T22:19:20.389Z,18.30
2017-08-25T22:21:47.935Z,18.30
2017-08-25T22:24:15.447Z,18.40
2017-08-25T22:26:42.993Z,18.40
2017-08-25T22:29:10.516Z,18.40
2017-08-25T22:31:38.060Z,18.40
2017-08-25T22:34:05.587Z,18.40
2017-08-25T22:36:33.126Z,18.40
2017-08-25T22:39:00.655Z,18.30
2017-08-25T22:41:28.213Z,18.10
2017-08-25T22:43:55.735Z,18.10
2017-08-25T22:46:24.023Z,18.00
2017-08-25T22:48:51.572Z,18.00
2017-08-25T22:51:19.865Z,18.00
2017-08-25T22:53:47.405Z,18.00
2017-08-25T22:56:14.930Z,18.00
2017-08-25T22:58:42.473Z,17.90
2017-08-25T23:01:09.995Z,17.90
2017-08-25T23:03:38.295Z,17.90
2017-08-25T23:06:05.811Z,17.90
2017-08-25T23:08:33.351Z,17.90
2017-08-25T23:11:00.873Z,17.80
2017-08-25T23:13:28.413Z,17.80
2017-08-25T23:15:55.938Z,17.80
2017-08-25T23:18:23.481Z,17.80
2017-08-25T23:20:51.590Z,17.80
2017-08-25T23:23:19.150Z,17.80
2017-08-25T23:25:46.670Z,17.70
2017-08-25T23:28:14.191Z,17.70
2017-08-25T23:30:41.728Z,17.60
2017-08-25T23:33:09.247Z,17.60
2017-08-25T23:35:36.783Z,17.60
2017-08-25T23:38:04.302Z,17.60
2017-08-25T23:40:31.842Z,17.70
2017-08-25T23:42:59.363Z,17.70
2017-08-25T23:45:26.905Z,17.60
2017-08-25T23:47:54.426Z,17.60
2017-08-25T23:50:21.966Z,17.60
2017-08-25T23:52:49.478Z,17.50
2017-08-25T23:55:17.028Z,17.40
2017-08-25T23:57:44.546Z,17.40
